sensor_id;sensor_type;location;lat;lon;timestamp;P1;durP1;ratioP1;P2;durP2;ratioP2
39128;SDS011;24864;49.940;19.770;2023-03-01T00:00:04;179.25;;;73.32;;
39128;SDS011;24864;49.940;19.770;2023-03-01T00:02:54;167.25;;;66.65;;
39128;SDS011;24864;49.940;19.770;2023-03-01T00:05:22;167.30;;;68.68;;
39128;SDS011;24864;49.940;19.770;2023-03-01T00:07:52;174.25;;;72.20;;
39128;SDS011;24864;49.940;19.770;2023-03-01T00:10:20;167.45;;;70.85;;
39128;SDS011;24864;49.940;19.770;2023-03-01T00:12:49;168.35;;;70.93;;
39128;SDS011;24864;49.940;19.770;2023-03-01T00:15:17;178.80;;;71.05;;
39128;SDS011;24864;49.940;19.770;2023-03-01T00:17:45;151.70;;;65.07;;
39128;SDS011;24864;49.940;19.770;2023-03-01T00:20:14;146.02;;;62.20;;
39128;SDS011;24864;49.940;19.770;2023-03-01T00:22:43;171.52;;;73.72;;
39128;SDS011;24864;49.940;19.770;2023-03-01T00:25:11;152.50;;;68.15;;
39128;SDS011;24864;49.940;19.770;2023-03-01T00:27:39;154.35;;;62.30;;
39128;SDS011;24864;49.940;19.770;2023-03-01T00:30:09;163.98;;;67.13;;
39128;SDS011;24864;49.940;19.770;2023-03-01T00:32:39;156.48;;;67.10;;
39128;SDS011;24864;49.940;19.770;2023-03-01T00:35:07;163.75;;;68.50;;
39128;SDS011;24864;49.940;19.770;2023-03-01T00:37:36;155.32;;;67.47;;
39128;SDS011;24864;49.940;19.770;2023-03-01T00:40:04;166.65;;;67.28;;
39128;SDS011;24864;49.940;19.770;2023-03-01T00:42:34;162.75;;;69.30;;
39128;SDS011;24864;49.940;19.770;2023-03-01T00:45:02;168.73;;;72.57;;
39128;SDS011;24864;49.940;19.770;2023-03-01T00:47:32;181.65;;;73.07;;
39128;SDS011;24864;49.940;19.770;2023-03-01T00:50:00;198.75;;;82.82;;
39128;SDS011;24864;49.940;19.770;2023-03-01T00:52:29;214.18;;;84.68;;
39128;SDS011;24864;49.940;19.770;2023-03-01T00:54:57;207.25;;;83.30;;
39128;SDS011;24864;49.940;19.770;2023-03-01T00:57:25;195.35;;;83.55;;
39128;SDS011;24864;49.940;19.770;2023-03-01T00:59:53;188.82;;;79.13;;
39128;SDS011;24864;49.940;19.770;2023-03-01T01:02:21;181.05;;;76.95;;
39128;SDS011;24864;49.940;19.770;2023-03-01T01:04:52;185.27;;;78.25;;
39128;SDS011;24864;49.940;19.770;2023-03-01T01:07:20;189.23;;;75.78;;
39128;SDS011;24864;49.940;19.770;2023-03-01T01:09:48;186.00;;;74.82;;
39128;SDS011;24864;49.940;19.770;2023-03-01T01:12:16;175.07;;;72.88;;
39128;SDS011;24864;49.940;19.770;2023-03-01T01:14:44;182.18;;;73.95;;
39128;SDS011;24864;49.940;19.770;2023-03-01T01:17:12;175.15;;;73.45;;
39128;SDS011;24864;49.940;19.770;2023-03-01T01:19:41;182.45;;;75.85;;
39128;SDS011;24864;49.940;19.770;2023-03-01T01:22:10;180.27;;;73.28;;
39128;SDS011;24864;49.940;19.770;2023-03-01T01:24:38;187.82;;;78.05;;
39128;SDS011;24864;49.940;19.770;2023-03-01T01:27:07;191.63;;;75.05;;
39128;SDS011;24864;49.940;19.770;2023-03-01T01:29:35;186.35;;;79.40;;
39128;SDS011;24864;49.940;19.770;2023-03-01T01:32:04;193.10;;;80.05;;
39128;SDS011;24864;49.940;19.770;2023-03-01T01:34:32;179.48;;;74.20;;
39128;SDS011;24864;49.940;19.770;2023-03-01T01:37:01;184.55;;;77.47;;
39128;SDS011;24864;49.940;19.770;2023-03-01T01:39:30;184.40;;;75.32;;
39128;SDS011;24864;49.940;19.770;2023-03-01T01:41:59;186.35;;;77.38;;
39128;SDS011;24864;49.940;19.770;2023-03-01T01:44:28;189.60;;;80.13;;
39128;SDS011;24864;49.940;19.770;2023-03-01T01:46:57;194.20;;;78.10;;
39128;SDS011;24864;49.940;19.770;2023-03-01T01:49:29;194.30;;;81.05;;
39128;SDS011;24864;49.940;19.770;2023-03-01T01:52:02;187.88;;;79.60;;
39128;SDS011;24864;49.940;19.770;2023-03-01T01:54:37;195.57;;;77.53;;
39128;SDS011;24864;49.940;19.770;2023-03-01T01:57:11;183.57;;;74.53;;
39128;SDS011;24864;49.940;19.770;2023-03-01T01:59:42;181.23;;;74.13;;
39128;SDS011;24864;49.940;19.770;2023-03-01T02:02:13;192.20;;;75.70;;
39128;SDS011;24864;49.940;19.770;2023-03-01T02:04:42;182.02;;;74.60;;
39128;SDS011;24864;49.940;19.770;2023-03-01T02:07:13;186.75;;;75.13;;
39128;SDS011;24864;49.940;19.770;2023-03-01T02:09:45;189.93;;;74.80;;
39128;SDS011;24864;49.940;19.770;2023-03-01T02:12:16;186.73;;;76.43;;
39128;SDS011;24864;49.940;19.770;2023-03-01T02:14:45;188.85;;;79.20;;
39128;SDS011;24864;49.940;19.770;2023-03-01T02:17:14;171.52;;;70.38;;
39128;SDS011;24864;49.940;19.770;2023-03-01T02:19:47;166.77;;;66.25;;
39128;SDS011;24864;49.940;19.770;2023-03-01T02:22:28;162.15;;;64.82;;
39128;SDS011;24864;49.940;19.770;2023-03-01T02:25:06;157.45;;;67.75;;
39128;SDS011;24864;49.940;19.770;2023-03-01T02:27:43;160.98;;;67.45;;
39128;SDS011;24864;49.940;19.770;2023-03-01T02:30:19;163.95;;;68.03;;
39128;SDS011;24864;49.940;19.770;2023-03-01T02:32:48;166.55;;;66.03;;
39128;SDS011;24864;49.940;19.770;2023-03-01T02:35:16;159.50;;;66.82;;
39128;SDS011;24864;49.940;19.770;2023-03-01T02:37:45;165.00;;;66.50;;
39128;SDS011;24864;49.940;19.770;2023-03-01T02:40:15;155.73;;;62.80;;
39128;SDS011;24864;49.940;19.770;2023-03-01T02:42:46;149.02;;;63.72;;
39128;SDS011;24864;49.940;19.770;2023-03-01T02:45:17;151.13;;;61.55;;
39128;SDS011;24864;49.940;19.770;2023-03-01T02:47:47;148.73;;;63.30;;
39128;SDS011;24864;49.940;19.770;2023-03-01T02:50:19;142.00;;;60.22;;
39128;SDS011;24864;49.940;19.770;2023-03-01T02:52:55;148.77;;;60.40;;
39128;SDS011;24864;49.940;19.770;2023-03-01T02:55:27;151.30;;;62.10;;
39128;SDS011;24864;49.940;19.770;2023-03-01T02:57:56;143.30;;;59.50;;
39128;SDS011;24864;49.940;19.770;2023-03-01T03:00:26;144.20;;;58.08;;
39128;SDS011;24864;49.940;19.770;2023-03-01T03:02:57;142.40;;;59.72;;
39128;SDS011;24864;49.940;19.770;2023-03-01T03:05:25;144.77;;;59.75;;
39128;SDS011;24864;49.940;19.770;2023-03-01T03:07:56;148.85;;;59.25;;
39128;SDS011;24864;49.940;19.770;2023-03-01T03:10:25;141.40;;;59.38;;
39128;SDS011;24864;49.940;19.770;2023-03-01T03:12:55;135.05;;;58.50;;
39128;SDS011;24864;49.940;19.770;2023-03-01T03:15:26;149.23;;;59.20;;
39128;SDS011;24864;49.940;19.770;2023-03-01T03:17:55;141.38;;;58.58;;
39128;SDS011;24864;49.940;19.770;2023-03-01T03:20:25;146.63;;;61.08;;
39128;SDS011;24864;49.940;19.770;2023-03-01T03:22:55;152.15;;;62.95;;
39128;SDS011;24864;49.940;19.770;2023-03-01T03:25:25;143.10;;;55.95;;
39128;SDS011;24864;49.940;19.770;2023-03-01T03:27:54;136.75;;;56.58;;
39128;SDS011;24864;49.940;19.770;2023-03-01T03:30:26;141.63;;;57.70;;
39128;SDS011;24864;49.940;19.770;2023-03-01T03:32:55;147.27;;;60.17;;
39128;SDS011;24864;49.940;19.770;2023-03-01T03:35:25;146.63;;;61.38;;
39128;SDS011;24864;49.940;19.770;2023-03-01T03:37:57;154.13;;;61.20;;
39128;SDS011;24864;49.940;19.770;2023-03-01T03:40:33;133.43;;;54.67;;
39128;SDS011;24864;49.940;19.770;2023-03-01T03:43:02;151.90;;;59.63;;
39128;SDS011;24864;49.940;19.770;2023-03-01T03:45:32;174.32;;;67.22;;
39128;SDS011;24864;49.940;19.770;2023-03-01T03:48:02;167.15;;;70.60;;
39128;SDS011;24864;49.940;19.770;2023-03-01T03:50:31;186.30;;;75.30;;
39128;SDS011;24864;49.940;19.770;2023-03-01T03:53:00;176.90;;;73.43;;
39128;SDS011;24864;49.940;19.770;2023-03-01T03:55:28;166.15;;;71.53;;
39128;SDS011;24864;49.940;19.770;2023-03-01T03:57:57;163.60;;;65.93;;
39128;SDS011;24864;49.940;19.770;2023-03-01T04:00:35;166.73;;;67.50;;
39128;SDS011;24864;49.940;19.770;2023-03-01T04:03:04;182.02;;;72.43;;
39128;SDS011;24864;49.940;19.770;2023-03-01T04:05:32;175.85;;;72.07;;
39128;SDS011;24864;49.940;19.770;2023-03-01T04:08:01;177.90;;;75.30;;
39128;SDS011;24864;49.940;19.770;2023-03-01T04:10:31;177.88;;;73.10;;
39128;SDS011;24864;49.940;19.770;2023-03-01T04:13:00;177.85;;;72.85;;
39128;SDS011;24864;49.940;19.770;2023-03-01T04:15:28;185.23;;;74.53;;
39128;SDS011;24864;49.940;19.770;2023-03-01T04:17:59;181.00;;;76.45;;
39128;SDS011;24864;49.940;19.770;2023-03-01T04:20:28;186.63;;;76.82;;
39128;SDS011;24864;49.940;19.770;2023-03-01T04:25:37;178.75;;;71.45;;
39128;SDS011;24864;49.940;19.770;2023-03-01T04:28:07;176.35;;;71.43;;
39128;SDS011;24864;49.940;19.770;2023-03-01T04:30:35;181.93;;;74.97;;
39128;SDS011;24864;49.940;19.770;2023-03-01T04:33:05;165.27;;;70.47;;
39128;SDS011;24864;49.940;19.770;2023-03-01T04:35:35;168.82;;;69.60;;
39128;SDS011;24864;49.940;19.770;2023-03-01T04:38:04;182.23;;;70.90;;
39128;SDS011;24864;49.940;19.770;2023-03-01T04:40:32;163.52;;;66.38;;
39128;SDS011;24864;49.940;19.770;2023-03-01T04:43:02;180.95;;;69.97;;
39128;SDS011;24864;49.940;19.770;2023-03-01T04:45:31;173.75;;;69.65;;
39128;SDS011;24864;49.940;19.770;2023-03-01T04:48:01;164.98;;;67.88;;
39128;SDS011;24864;49.940;19.770;2023-03-01T04:50:31;173.23;;;72.47;;
39128;SDS011;24864;49.940;19.770;2023-03-01T04:52:59;170.40;;;69.10;;
39128;SDS011;24864;49.940;19.770;2023-03-01T04:55:27;178.20;;;74.93;;
39128;SDS011;24864;49.940;19.770;2023-03-01T04:57:56;180.35;;;75.70;;
39128;SDS011;24864;49.940;19.770;2023-03-01T05:00:24;200.23;;;75.70;;
39128;SDS011;24864;49.940;19.770;2023-03-01T05:02:53;192.90;;;78.88;;
39128;SDS011;24864;49.940;19.770;2023-03-01T05:05:24;197.45;;;79.40;;
39128;SDS011;24864;49.940;19.770;2023-03-01T05:07:56;192.37;;;80.67;;
39128;SDS011;24864;49.940;19.770;2023-03-01T05:10:25;183.87;;;76.57;;
39128;SDS011;24864;49.940;19.770;2023-03-01T05:12:55;197.25;;;78.10;;
39128;SDS011;24864;49.940;19.770;2023-03-01T05:15:24;201.23;;;82.13;;
39128;SDS011;24864;49.940;19.770;2023-03-01T05:17:54;214.35;;;89.00;;
39128;SDS011;24864;49.940;19.770;2023-03-01T05:20:25;195.00;;;80.22;;
39128;SDS011;24864;49.940;19.770;2023-03-01T05:22:54;191.95;;;80.35;;
39128;SDS011;24864;49.940;19.770;2023-03-01T05:25:25;208.65;;;86.05;;
39128;SDS011;24864;49.940;19.770;2023-03-01T05:27:53;200.93;;;82.45;;
39128;SDS011;24864;49.940;19.770;2023-03-01T05:30:22;195.82;;;75.97;;
39128;SDS011;24864;49.940;19.770;2023-03-01T05:32:50;207.13;;;81.55;;
39128;SDS011;24864;49.940;19.770;2023-03-01T05:35:22;200.43;;;83.85;;
39128;SDS011;24864;49.940;19.770;2023-03-01T05:37:51;193.40;;;81.18;;
39128;SDS011;24864;49.940;19.770;2023-03-01T05:40:21;191.43;;;78.03;;
39128;SDS011;24864;49.940;19.770;2023-03-01T05:42:52;171.15;;;71.18;;
39128;SDS011;24864;49.940;19.770;2023-03-01T05:45:21;170.43;;;69.00;;
39128;SDS011;24864;49.940;19.770;2023-03-01T05:47:51;164.73;;;64.93;;
39128;SDS011;24864;49.940;19.770;2023-03-01T05:50:21;192.50;;;75.22;;
39128;SDS011;24864;49.940;19.770;2023-03-01T05:52:54;187.48;;;72.82;;
39128;SDS011;24864;49.940;19.770;2023-03-01T05:55:26;197.00;;;78.07;;
39128;SDS011;24864;49.940;19.770;2023-03-01T05:57:57;185.45;;;75.30;;
39128;SDS011;24864;49.940;19.770;2023-03-01T06:00:26;181.32;;;75.72;;
39128;SDS011;24864;49.940;19.770;2023-03-01T06:02:55;178.75;;;70.78;;
39128;SDS011;24864;49.940;19.770;2023-03-01T06:05:24;161.48;;;67.25;;
39128;SDS011;24864;49.940;19.770;2023-03-01T06:07:53;139.50;;;60.58;;
39128;SDS011;24864;49.940;19.770;2023-03-01T06:10:22;145.32;;;59.90;;
39128;SDS011;24864;49.940;19.770;2023-03-01T06:12:52;137.38;;;56.72;;
39128;SDS011;24864;49.940;19.770;2023-03-01T06:15:21;132.65;;;53.63;;
39128;SDS011;24864;49.940;19.770;2023-03-01T06:17:50;114.15;;;48.50;;
39128;SDS011;24864;49.940;19.770;2023-03-01T06:20:19;104.65;;;44.45;;
39128;SDS011;24864;49.940;19.770;2023-03-01T06:22:48;107.15;;;42.42;;
39128;SDS011;24864;49.940;19.770;2023-03-01T06:25:18;97.35;;;41.35;;
39128;SDS011;24864;49.940;19.770;2023-03-01T06:27:48;102.70;;;40.97;;
39128;SDS011;24864;49.940;19.770;2023-03-01T06:30:18;126.22;;;51.75;;
39128;SDS011;24864;49.940;19.770;2023-03-01T06:32:47;112.77;;;47.07;;
39128;SDS011;24864;49.940;19.770;2023-03-01T06:35:16;116.93;;;51.15;;
39128;SDS011;24864;49.940;19.770;2023-03-01T06:37:45;114.78;;;52.17;;
39128;SDS011;24864;49.940;19.770;2023-03-01T06:40:14;126.95;;;50.88;;
39128;SDS011;24864;49.940;19.770;2023-03-01T06:42:43;130.15;;;53.50;;
39128;SDS011;24864;49.940;19.770;2023-03-01T06:45:16;146.77;;;60.97;;
39128;SDS011;24864;49.940;19.770;2023-03-01T06:47:46;148.93;;;60.63;;
39128;SDS011;24864;49.940;19.770;2023-03-01T06:50:15;150.55;;;61.70;;
39128;SDS011;24864;49.940;19.770;2023-03-01T06:52:44;138.57;;;58.83;;
39128;SDS011;24864;49.940;19.770;2023-03-01T06:55:11;138.60;;;58.53;;
39128;SDS011;24864;49.940;19.770;2023-03-01T06:57:40;133.13;;;57.03;;
39128;SDS011;24864;49.940;19.770;2023-03-01T07:00:08;142.13;;;57.63;;
39128;SDS011;24864;49.940;19.770;2023-03-01T07:02:39;136.45;;;53.80;;
39128;SDS011;24864;49.940;19.770;2023-03-01T07:05:08;121.85;;;51.65;;
39128;SDS011;24864;49.940;19.770;2023-03-01T07:07:36;116.07;;;49.08;;
39128;SDS011;24864;49.940;19.770;2023-03-01T07:10:04;122.07;;;55.00;;
39128;SDS011;24864;49.940;19.770;2023-03-01T07:12:34;125.90;;;53.20;;
39128;SDS011;24864;49.940;19.770;2023-03-01T07:15:02;123.85;;;52.10;;
39128;SDS011;24864;49.940;19.770;2023-03-01T07:17:31;122.88;;;53.60;;
39128;SDS011;24864;49.940;19.770;2023-03-01T07:20:00;123.82;;;53.13;;
39128;SDS011;24864;49.940;19.770;2023-03-01T07:22:28;112.45;;;50.15;;
39128;SDS011;24864;49.940;19.770;2023-03-01T07:24:56;125.20;;;52.85;;
39128;SDS011;24864;49.940;19.770;2023-03-01T07:27:25;147.40;;;62.97;;
39128;SDS011;24864;49.940;19.770;2023-03-01T07:29:52;137.40;;;61.28;;
39128;SDS011;24864;49.940;19.770;2023-03-01T07:32:21;128.93;;;56.03;;
39128;SDS011;24864;49.940;19.770;2023-03-01T07:34:50;126.65;;;55.05;;
39128;SDS011;24864;49.940;19.770;2023-03-01T07:37:20;124.93;;;56.47;;
39128;SDS011;24864;49.940;19.770;2023-03-01T07:39:48;112.82;;;49.28;;
39128;SDS011;24864;49.940;19.770;2023-03-01T07:42:16;105.03;;;47.55;;
39128;SDS011;24864;49.940;19.770;2023-03-01T07:44:44;96.97;;;43.03;;
39128;SDS011;24864;49.940;19.770;2023-03-01T07:47:12;91.90;;;41.00;;
39128;SDS011;24864;49.940;19.770;2023-03-01T07:49:40;87.55;;;42.22;;
39128;SDS011;24864;49.940;19.770;2023-03-01T07:52:09;99.78;;;44.72;;
39128;SDS011;24864;49.940;19.770;2023-03-01T07:54:41;89.82;;;43.60;;
39128;SDS011;24864;49.940;19.770;2023-03-01T07:57:10;82.43;;;39.53;;
39128;SDS011;24864;49.940;19.770;2023-03-01T07:59:38;84.70;;;38.28;;
39128;SDS011;24864;49.940;19.770;2023-03-01T08:02:07;80.00;;;38.03;;
39128;SDS011;24864;49.940;19.770;2023-03-01T08:04:36;76.22;;;34.10;;
39128;SDS011;24864;49.940;19.770;2023-03-01T08:07:04;74.68;;;34.35;;
39128;SDS011;24864;49.940;19.770;2023-03-01T08:09:33;78.15;;;35.35;;
39128;SDS011;24864;49.940;19.770;2023-03-01T08:12:03;75.65;;;33.58;;
39128;SDS011;24864;49.940;19.770;2023-03-01T08:14:32;82.00;;;37.88;;
39128;SDS011;24864;49.940;19.770;2023-03-01T08:17:00;84.18;;;38.40;;
39128;SDS011;24864;49.940;19.770;2023-03-01T08:19:29;71.03;;;33.70;;
39128;SDS011;24864;49.940;19.770;2023-03-01T08:21:58;85.03;;;37.30;;
39128;SDS011;24864;49.940;19.770;2023-03-01T08:24:26;115.45;;;51.97;;
39128;SDS011;24864;49.940;19.770;2023-03-01T08:26:54;114.95;;;53.47;;
39128;SDS011;24864;49.940;19.770;2023-03-01T08:29:24;116.43;;;55.03;;
39128;SDS011;24864;49.940;19.770;2023-03-01T08:31:52;125.55;;;55.88;;
39128;SDS011;24864;49.940;19.770;2023-03-01T08:34:20;115.78;;;55.90;;
39128;SDS011;24864;49.940;19.770;2023-03-01T08:36:48;109.82;;;52.10;;
39128;SDS011;24864;49.940;19.770;2023-03-01T08:39:19;112.95;;;51.47;;
39128;SDS011;24864;49.940;19.770;2023-03-01T08:41:48;102.68;;;49.00;;
39128;SDS011;24864;49.940;19.770;2023-03-01T08:44:16;101.90;;;47.42;;
39128;SDS011;24864;49.940;19.770;2023-03-01T08:46:46;103.90;;;46.88;;
39128;SDS011;24864;49.940;19.770;2023-03-01T08:49:17;100.28;;;46.60;;
39128;SDS011;24864;49.940;19.770;2023-03-01T08:51:46;117.38;;;51.13;;
39128;SDS011;24864;49.940;19.770;2023-03-01T08:54:15;118.55;;;53.33;;
39128;SDS011;24864;49.940;19.770;2023-03-01T08:56:44;112.93;;;51.08;;
39128;SDS011;24864;49.940;19.770;2023-03-01T08:59:13;122.07;;;52.47;;
39128;SDS011;24864;49.940;19.770;2023-03-01T09:01:42;124.25;;;56.83;;
39128;SDS011;24864;49.940;19.770;2023-03-01T09:04:12;113.85;;;55.75;;
39128;SDS011;24864;49.940;19.770;2023-03-01T09:06:41;119.18;;;53.22;;
39128;SDS011;24864;49.940;19.770;2023-03-01T09:09:10;116.10;;;53.28;;
39128;SDS011;24864;49.940;19.770;2023-03-01T09:11:42;106.68;;;51.35;;
39128;SDS011;24864;49.940;19.770;2023-03-01T09:14:12;113.05;;;49.72;;
39128;SDS011;24864;49.940;19.770;2023-03-01T09:16:40;99.13;;;45.55;;
39128;SDS011;24864;49.940;19.770;2023-03-01T09:19:09;91.28;;;43.50;;
39128;SDS011;24864;49.940;19.770;2023-03-01T09:21:39;90.63;;;40.25;;
39128;SDS011;24864;49.940;19.770;2023-03-01T09:24:08;84.22;;;39.75;;
39128;SDS011;24864;49.940;19.770;2023-03-01T09:26:41;69.40;;;33.83;;
39128;SDS011;24864;49.940;19.770;2023-03-01T09:29:09;103.03;;;46.33;;
39128;SDS011;24864;49.940;19.770;2023-03-01T09:31:37;92.72;;;45.65;;
39128;SDS011;24864;49.940;19.770;2023-03-01T09:34:06;101.90;;;46.40;;
39128;SDS011;24864;49.940;19.770;2023-03-01T09:36:34;66.07;;;35.67;;
39128;SDS011;24864;49.940;19.770;2023-03-01T09:39:04;50.45;;;27.30;;
39128;SDS011;24864;49.940;19.770;2023-03-01T09:41:36;49.13;;;26.50;;
39128;SDS011;24864;49.940;19.770;2023-03-01T09:44:10;74.75;;;34.30;;
39128;SDS011;24864;49.940;19.770;2023-03-01T09:46:49;68.65;;;34.13;;
39128;SDS011;24864;49.940;19.770;2023-03-01T09:49:19;50.88;;;28.90;;
39128;SDS011;24864;49.940;19.770;2023-03-01T09:51:54;61.50;;;29.80;;
39128;SDS011;24864;49.940;19.770;2023-03-01T09:54:25;65.45;;;31.02;;
39128;SDS011;24864;49.940;19.770;2023-03-01T09:59:49;66.15;;;31.63;;
39128;SDS011;24864;49.940;19.770;2023-03-01T10:02:26;89.45;;;42.70;;
39128;SDS011;24864;49.940;19.770;2023-03-01T10:04:59;85.22;;;41.83;;
39128;SDS011;24864;49.940;19.770;2023-03-01T10:07:36;85.20;;;42.65;;
39128;SDS011;24864;49.940;19.770;2023-03-01T10:10:16;74.03;;;36.63;;
39128;SDS011;24864;49.940;19.770;2023-03-01T10:12:49;68.95;;;34.78;;
39128;SDS011;24864;49.940;19.770;2023-03-01T10:15:19;66.75;;;34.72;;
39128;SDS011;24864;49.940;19.770;2023-03-01T10:17:52;64.38;;;34.30;;
39128;SDS011;24864;49.940;19.770;2023-03-01T10:20:24;61.90;;;32.67;;
39128;SDS011;24864;49.940;19.770;2023-03-01T10:22:54;64.03;;;34.20;;
39128;SDS011;24864;49.940;19.770;2023-03-01T10:25:28;67.57;;;34.55;;
39128;SDS011;24864;49.940;19.770;2023-03-01T10:28:05;56.38;;;32.05;;
39128;SDS011;24864;49.940;19.770;2023-03-01T10:30:39;62.30;;;32.90;;
39128;SDS011;24864;49.940;19.770;2023-03-01T10:33:13;65.38;;;32.10;;
39128;SDS011;24864;49.940;19.770;2023-03-01T10:35:44;62.33;;;31.90;;
39128;SDS011;24864;49.940;19.770;2023-03-01T10:38:14;50.72;;;29.83;;
39128;SDS011;24864;49.940;19.770;2023-03-01T10:40:51;52.42;;;29.50;;
39128;SDS011;24864;49.940;19.770;2023-03-01T10:43:21;51.17;;;28.35;;
39128;SDS011;24864;49.940;19.770;2023-03-01T10:45:49;55.60;;;29.75;;
39128;SDS011;24864;49.940;19.770;2023-03-01T10:48:18;55.90;;;29.42;;
39128;SDS011;24864;49.940;19.770;2023-03-01T10:50:51;57.28;;;30.33;;
39128;SDS011;24864;49.940;19.770;2023-03-01T10:53:33;56.50;;;30.55;;
39128;SDS011;24864;49.940;19.770;2023-03-01T10:56:05;53.78;;;27.15;;
39128;SDS011;24864;49.940;19.770;2023-03-01T10:58:35;45.35;;;27.08;;
39128;SDS011;24864;49.940;19.770;2023-03-01T11:01:05;48.20;;;26.10;;
39128;SDS011;24864;49.940;19.770;2023-03-01T11:03:34;46.67;;;26.00;;
39128;SDS011;24864;49.940;19.770;2023-03-01T11:06:04;51.20;;;29.60;;
39128;SDS011;24864;49.940;19.770;2023-03-01T11:08:35;46.55;;;26.33;;
39128;SDS011;24864;49.940;19.770;2023-03-01T11:11:07;42.97;;;25.70;;
39128;SDS011;24864;49.940;19.770;2023-03-01T11:13:56;51.17;;;28.77;;
39128;SDS011;24864;49.940;19.770;2023-03-01T11:16:27;53.13;;;27.23;;
39128;SDS011;24864;49.940;19.770;2023-03-01T11:19:03;54.85;;;28.73;;
39128;SDS011;24864;49.940;19.770;2023-03-01T11:21:44;56.45;;;29.05;;
39128;SDS011;24864;49.940;19.770;2023-03-01T11:24:19;55.92;;;28.70;;
39128;SDS011;24864;49.940;19.770;2023-03-01T11:26:50;43.95;;;28.42;;
39128;SDS011;24864;49.940;19.770;2023-03-01T11:29:21;51.78;;;28.75;;
39128;SDS011;24864;49.940;19.770;2023-03-01T11:32:04;53.50;;;29.27;;
39128;SDS011;24864;49.940;19.770;2023-03-01T11:34:40;55.00;;;29.92;;
39128;SDS011;24864;49.940;19.770;2023-03-01T11:37:13;51.15;;;28.88;;
39128;SDS011;24864;49.940;19.770;2023-03-01T11:39:51;53.15;;;29.77;;
39128;SDS011;24864;49.940;19.770;2023-03-01T11:42:24;49.55;;;27.92;;
39128;SDS011;24864;49.940;19.770;2023-03-01T11:44:58;47.65;;;26.80;;
39128;SDS011;24864;49.940;19.770;2023-03-01T11:47:30;53.35;;;29.27;;
39128;SDS011;24864;49.940;19.770;2023-03-01T11:50:08;52.70;;;27.33;;
39128;SDS011;24864;49.940;19.770;2023-03-01T11:52:45;74.93;;;39.75;;
39128;SDS011;24864;49.940;19.770;2023-03-01T11:55:27;42.20;;;24.30;;
39128;SDS011;24864;49.940;19.770;2023-03-01T11:58:22;87.78;;;43.28;;
39128;SDS011;24864;49.940;19.770;2023-03-01T12:01:16;45.45;;;25.80;;
39128;SDS011;24864;49.940;19.770;2023-03-01T12:03:53;56.55;;;27.73;;
39128;SDS011;24864;49.940;19.770;2023-03-01T12:06:52;45.30;;;24.27;;
39128;SDS011;24864;49.940;19.770;2023-03-01T12:09:30;46.40;;;24.77;;
39128;SDS011;24864;49.940;19.770;2023-03-01T12:12:21;43.40;;;25.00;;
39128;SDS011;24864;49.940;19.770;2023-03-01T12:14:58;46.17;;;24.65;;
39128;SDS011;24864;49.940;19.770;2023-03-01T12:17:40;46.38;;;26.77;;
39128;SDS011;24864;49.940;19.770;2023-03-01T12:20:22;52.42;;;29.38;;
39128;SDS011;24864;49.940;19.770;2023-03-01T12:23:02;57.47;;;31.70;;
39128;SDS011;24864;49.940;19.770;2023-03-01T12:25:46;43.55;;;21.23;;
39128;SDS011;24864;49.940;19.770;2023-03-01T12:28:19;42.90;;;21.45;;
39128;SDS011;24864;49.940;19.770;2023-03-01T12:31:05;36.30;;;21.33;;
39128;SDS011;24864;49.940;19.770;2023-03-01T12:33:49;58.33;;;27.63;;
39128;SDS011;24864;49.940;19.770;2023-03-01T12:36:33;41.22;;;21.77;;
39128;SDS011;24864;49.940;19.770;2023-03-01T12:39:11;58.90;;;28.63;;
39128;SDS011;24864;49.940;19.770;2023-03-01T12:41:48;81.55;;;37.35;;
39128;SDS011;24864;49.940;19.770;2023-03-01T12:44:30;41.40;;;21.55;;
39128;SDS011;24864;49.940;19.770;2023-03-01T12:47:22;41.42;;;20.38;;
39128;SDS011;24864;49.940;19.770;2023-03-01T12:49:57;58.17;;;28.55;;
39128;SDS011;24864;49.940;19.770;2023-03-01T12:52:32;39.10;;;20.47;;
39128;SDS011;24864;49.940;19.770;2023-03-01T12:55:06;32.53;;;18.48;;
39128;SDS011;24864;49.940;19.770;2023-03-01T12:57:45;36.97;;;19.98;;
39128;SDS011;24864;49.940;19.770;2023-03-01T13:00:20;43.75;;;20.52;;
39128;SDS011;24864;49.940;19.770;2023-03-01T13:02:54;36.88;;;20.30;;
39128;SDS011;24864;49.940;19.770;2023-03-01T13:05:31;35.92;;;20.05;;
39128;SDS011;24864;49.940;19.770;2023-03-01T13:08:06;41.83;;;23.40;;
39128;SDS011;24864;49.940;19.770;2023-03-01T13:10:42;60.10;;;26.60;;
39128;SDS011;24864;49.940;19.770;2023-03-01T13:13:19;59.30;;;25.83;;
39128;SDS011;24864;49.940;19.770;2023-03-01T13:15:49;50.75;;;24.48;;
39128;SDS011;24864;49.940;19.770;2023-03-01T13:18:30;41.78;;;23.00;;
39128;SDS011;24864;49.940;19.770;2023-03-01T13:21:00;37.53;;;22.40;;
39128;SDS011;24864;49.940;19.770;2023-03-01T13:23:30;39.97;;;20.35;;
39128;SDS011;24864;49.940;19.770;2023-03-01T13:26:12;38.78;;;19.92;;
39128;SDS011;24864;49.940;19.770;2023-03-01T13:28:46;30.50;;;16.83;;
39128;SDS011;24864;49.940;19.770;2023-03-01T13:37:26;43.95;;;23.20;;
39128;SDS011;24864;49.940;19.770;2023-03-01T13:39:57;57.90;;;26.05;;
39128;SDS011;24864;49.940;19.770;2023-03-01T13:42:32;40.72;;;21.50;;
39128;SDS011;24864;49.940;19.770;2023-03-01T13:45:04;36.97;;;19.10;;
39128;SDS011;24864;49.940;19.770;2023-03-01T13:47:42;42.03;;;18.70;;
39128;SDS011;24864;49.940;19.770;2023-03-01T13:50:18;38.47;;;20.25;;
39128;SDS011;24864;49.940;19.770;2023-03-01T13:52:49;52.40;;;25.83;;
39128;SDS011;24864;49.940;19.770;2023-03-01T13:55:21;44.30;;;23.30;;
39128;SDS011;24864;49.940;19.770;2023-03-01T13:57:53;40.70;;;19.77;;
39128;SDS011;24864;49.940;19.770;2023-03-01T14:03:03;38.00;;;19.52;;
39128;SDS011;24864;49.940;19.770;2023-03-01T14:05:43;52.45;;;23.00;;
39128;SDS011;24864;49.940;19.770;2023-03-01T14:08:39;36.85;;;19.65;;
39128;SDS011;24864;49.940;19.770;2023-03-01T14:14:17;40.88;;;20.48;;
39128;SDS011;24864;49.940;19.770;2023-03-01T14:17:18;40.55;;;21.95;;
39128;SDS011;24864;49.940;19.770;2023-03-01T14:20:16;42.90;;;22.67;;
39128;SDS011;24864;49.940;19.770;2023-03-01T14:22:47;34.45;;;19.48;;
39128;SDS011;24864;49.940;19.770;2023-03-01T14:25:19;32.87;;;19.37;;
39128;SDS011;24864;49.940;19.770;2023-03-01T14:27:54;43.85;;;22.80;;
39128;SDS011;24864;49.940;19.770;2023-03-01T14:30:25;45.70;;;23.00;;
39128;SDS011;24864;49.940;19.770;2023-03-01T14:32:54;45.45;;;23.23;;
39128;SDS011;24864;49.940;19.770;2023-03-01T14:35:24;37.78;;;20.30;;
39128;SDS011;24864;49.940;19.770;2023-03-01T14:37:55;38.72;;;19.92;;
39128;SDS011;24864;49.940;19.770;2023-03-01T14:40:25;37.67;;;17.92;;
39128;SDS011;24864;49.940;19.770;2023-03-01T14:42:55;40.10;;;18.35;;